createdAt,value
2022-12-25T00:01:10.549Z,100796.97
2022-12-25T00:04:13.629Z,100786.34
2022-12-25T00:07:16.269Z,100788.97
2022-12-25T00:10:19.574Z,100794.22
2022-12-25T00:13:22.038Z,100788.75
2022-12-25T00:16:26.212Z,100786.06
2022-12-25T00:19:28.893Z,100785.16
2022-12-25T00:22:31.692Z,100781.62
2022-12-25T00:25:34.239Z,100789.56
2022-12-25T00:28:37.410Z,100776.31
2022-12-25T00:31:40.588Z,100782.53
2022-12-25T00:34:43.473Z,100786.91
2022-12-25T00:37:45.971Z,100780.63
2022-12-25T00:40:48.900Z,100788.59
2022-12-25T00:43:51.418Z,100785.87
2022-12-25T00:46:54.431Z,100788.50
2022-12-25T00:49:57.060Z,100792.91
2022-12-25T00:52:59.882Z,100795.03
2022-12-25T00:56:05.590Z,100800.63
2022-12-25T00:59:08.428Z,100806.19
2022-12-25T01:02:24.571Z,100817.88
2022-12-25T01:05:27.733Z,100820.69
2022-12-25T01:08:35.930Z,100832.59
2022-12-25T01:11:38.994Z,100835.97
2022-12-25T01:14:41.511Z,100849.22
2022-12-25T01:17:44.789Z,100841.97
2022-12-25T01:20:47.873Z,100838.28
2022-12-25T01:23:52.577Z,100842.62
2022-12-25T01:26:55.095Z,100848.81
2022-12-25T01:29:58.071Z,100848.75
2022-12-25T01:33:00.676Z,100838.97
2022-12-25T01:36:04.746Z,100845.97
2022-12-25T01:39:07.310Z,100843.28
2022-12-25T01:42:19.412Z,100852.34
2022-12-25T01:45:38.058Z,100849.63
2022-12-25T01:48:41.208Z,100845.97
2022-12-25T01:52:06.236Z,100853.06
2022-12-25T01:55:11.419Z,100848.53
2022-12-25T01:58:14.356Z,100843.94
2022-12-25T02:01:18.057Z,100853.59
2022-12-25T02:04:38.721Z,100857.94
2022-12-25T02:07:42.396Z,100861.44
2022-12-25T02:10:45.712Z,100863.16
2022-12-25T02:13:48.336Z,100865.75
2022-12-25T02:17:13.559Z,100865.69
2022-12-25T02:20:28.250Z,100855.00
2022-12-25T02:23:49.853Z,100867.91
2022-12-25T02:27:26.661Z,100850.81
2022-12-25T02:30:36.068Z,100857.84
2022-12-25T02:34:30.715Z,100866.09
2022-12-25T02:37:56.751Z,100882.97
2022-12-25T02:41:05.094Z,100881.13
2022-12-25T02:44:31.912Z,100878.44
2022-12-25T02:47:54.345Z,100872.31
2022-12-25T02:51:16.141Z,100881.31
2022-12-25T02:54:41.896Z,100878.50
2022-12-25T02:58:17.477Z,100878.41
2022-12-25T03:01:40.023Z,100873.94
2022-12-25T03:05:01.912Z,100880.16
2022-12-25T03:08:08.566Z,100873.06
2022-12-25T03:11:31.194Z,100880.09
2022-12-25T03:14:52.372Z,100880.13
2022-12-25T03:18:00.943Z,100881.00
2022-12-25T03:21:22.301Z,100880.06
2022-12-25T03:24:51.226Z,100879.19
2022-12-25T03:27:55.329Z,100888.06
2022-12-25T03:31:14.080Z,100883.78
2022-12-25T03:34:44.630Z,100879.41
2022-12-25T03:38:35.141Z,100891.16
2022-12-25T03:41:56.081Z,100898.19
2022-12-25T03:45:24.475Z,100891.81
2022-12-25T03:48:46.616Z,100903.25
2022-12-25T03:52:09.317Z,100908.53
2022-12-25T03:55:31.101Z,100901.50
2022-12-25T03:58:52.352Z,100912.06
2022-12-25T04:02:13.487Z,100899.47
2022-12-25T04:05:35.125Z,100896.94
2022-12-25T04:08:56.764Z,100892.66
2022-12-25T04:12:18.219Z,100899.97
2022-12-25T04:15:39.379Z,100906.25
2022-12-25T04:19:01.424Z,100905.16
2022-12-25T04:22:22.553Z,100905.94
2022-12-25T04:25:43.629Z,100899.62
2022-12-25T04:29:04.655Z,100903.91
2022-12-25T04:32:25.774Z,100886.88
2022-12-25T04:35:46.911Z,100898.34
2022-12-25T04:38:49.791Z,100884.97
2022-12-25T04:41:52.376Z,100889.44
2022-12-25T04:44:55.128Z,100884.94
2022-12-25T04:48:00.184Z,100894.72
2022-12-25T04:51:16.816Z,100894.66
2022-12-25T04:54:19.404Z,100883.94
2022-12-25T04:57:22.293Z,100899.84
2022-12-25T05:00:25.046Z,100896.22
2022-12-25T05:03:28.976Z,100883.72
2022-12-25T05:06:31.676Z,100890.87
2022-12-25T05:09:34.451Z,100897.94
2022-12-25T05:12:36.949Z,100891.72
2022-12-25T05:15:40.691Z,100897.09
2022-12-25T05:18:43.505Z,100896.25
2022-12-25T05:21:46.269Z,100899.94
2022-12-25T05:24:48.875Z,100893.81
2022-12-25T05:27:54.004Z,100903.69
2022-12-25T05:30:57.782Z,100896.59
2022-12-25T05:34:00.639Z,100895.78
2022-12-25T05:37:03.121Z,100891.59
2022-12-25T05:40:08.620Z,100896.78
2022-12-25T05:43:11.145Z,100890.47
2022-12-25T05:46:14.464Z,100898.31
2022-12-25T05:49:17.112Z,100897.41
2022-12-25T05:52:19.986Z,100899.97
2022-12-25T05:55:22.618Z,100897.22
2022-12-25T05:58:25.434Z,100897.25
2022-12-25T06:01:28.716Z,100906.16
2022-12-25T06:04:31.627Z,100906.16
2022-12-25T06:07:36.726Z,100909.62
2022-12-25T06:10:39.685Z,100917.59
2022-12-25T06:13:43.255Z,100919.25
2022-12-25T06:16:46.213Z,100927.09
2022-12-25T06:19:48.827Z,100921.63
2022-12-25T06:22:51.680Z,100925.09
2022-12-25T06:25:54.413Z,100932.91
2022-12-25T06:28:57.229Z,100937.25
2022-12-25T06:31:59.909Z,100932.69
2022-12-25T06:35:02.806Z,100941.44
2022-12-25T06:38:05.280Z,100955.44
2022-12-25T06:41:10.809Z,100949.97
2022-12-25T06:44:13.727Z,100960.34
2022-12-25T06:47:16.911Z,100957.44
2022-12-25T06:50:19.536Z,100950.09
2022-12-25T06:53:22.361Z,100969.63
2022-12-25T06:56:27.253Z,100976.69
2022-12-25T06:59:30.052Z,100978.53
2022-12-25T07:02:33.709Z,100988.44
2022-12-25T07:05:36.561Z,100986.91
2022-12-25T07:08:39.383Z,100987.28
2022-12-25T07:11:42.519Z,100987.81
2022-12-25T07:14:48.777Z,100993.25
2022-12-25T07:17:51.702Z,100996.13
2022-12-25T07:20:55.863Z,101001.69
2022-12-25T07:23:58.743Z,100988.53
2022-12-25T07:27:01.392Z,100999.34
2022-12-25T07:30:04.610Z,100996.00
2022-12-25T07:33:07.226Z,101005.09
2022-12-25T07:36:12.949Z,101008.88
2022-12-25T07:39:16.372Z,101014.41
2022-12-25T07:42:23.420Z,101011.75
2022-12-25T07:45:30.153Z,101019.09
2022-12-25T07:48:33.592Z,101016.53
2022-12-25T07:51:36.192Z,101027.31
2022-12-25T07:54:39.223Z,101023.13
2022-12-25T07:57:41.791Z,101028.69
2022-12-25T08:00:44.659Z,101031.47
2022-12-25T08:03:52.513Z,101035.12
2022-12-25T08:06:55.145Z,101036.97
2022-12-25T08:09:58.009Z,101019.22
2022-12-25T08:13:00.536Z,101021.97
2022-12-25T08:16:05.971Z,101027.37
2022-12-25T08:19:09.299Z,101033.78
2022-12-25T08:22:12.137Z,101032.97
2022-12-25T08:25:15.945Z,101038.22
2022-12-25T08:28:18.848Z,101049.72
2022-12-25T08:31:24.981Z,101045.09
2022-12-25T08:34:27.887Z,101040.41
2022-12-25T08:37:30.506Z,101041.03
2022-12-25T08:40:33.406Z,101048.22
2022-12-25T08:43:36.401Z,101048.97
2022-12-25T08:46:39.958Z,101046.94
2022-12-25T08:49:42.584Z,101043.41
2022-12-25T08:52:45.589Z,101044.53
2022-12-25T08:55:48.894Z,101041.19
2022-12-25T08:58:51.860Z,101040.75
2022-12-25T09:01:54.672Z,101046.38
2022-12-25T09:04:57.781Z,101040.28
2022-12-25T09:08:00.301Z,101042.03
2022-12-25T09:11:05.113Z,101036.66
2022-12-25T09:14:09.794Z,101039.31
2022-12-25T09:17:12.631Z,101051.78
2022-12-25T09:20:15.242Z,101052.75
2022-12-25T09:23:18.100Z,101048.34
2022-12-25T09:26:21.000Z,101048.53
2022-12-25T09:29:23.929Z,101041.66
2022-12-25T09:32:26.479Z,101037.44
2022-12-25T09:35:29.300Z,101051.97
2022-12-25T09:38:32.489Z,101040.44
2022-12-25T09:41:45.983Z,101043.19
2022-12-25T09:44:56.211Z,101029.72
2022-12-25T09:47:59.193Z,101031.53
2022-12-25T09:51:10.215Z,101029.81
2022-12-25T09:54:22.465Z,101035.34
2022-12-25T09:57:26.358Z,101042.62
2022-12-25T10:00:33.837Z,101043.53
2022-12-25T10:04:15.498Z,101038.25
2022-12-25T10:07:31.024Z,101047.41
2022-12-25T10:10:45.832Z,101050.19
2022-12-25T10:13:57.512Z,101040.34
2022-12-25T10:17:34.693Z,101047.56
2022-12-25T10:20:50.786Z,101035.97
2022-12-25T10:24:07.348Z,101030.91
2022-12-25T10:27:19.830Z,101033.50
2022-12-25T10:30:24.584Z,101029.16
2022-12-25T10:33:27.652Z,101031.97
2022-12-25T10:36:32.201Z,101030.25
2022-12-25T10:39:34.871Z,101021.41
2022-12-25T10:42:41.320Z,101011.69
2022-12-25T10:45:48.423Z,101011.69
2022-12-25T10:48:54.404Z,100998.38
2022-12-25T10:51:57.433Z,101012.00
2022-12-25T10:55:13.583Z,101005.81
2022-12-25T10:58:20.816Z,101008.50
2022-12-25T11:01:27.880Z,101002.34
2022-12-25T11:04:34.816Z,101000.66
2022-12-25T11:07:46.886Z,100998.97
2022-12-25T11:11:06.566Z,100996.41
2022-12-25T11:14:17.281Z,101002.87
2022-12-25T11:17:22.290Z,100995.84
2022-12-25T11:20:26.036Z,100985.97
2022-12-25T11:23:30.822Z,100990.25
2022-12-25T11:26:50.460Z,100975.81
2022-12-25T11:29:55.024Z,100962.28
2022-12-25T11:33:01.539Z,100964.94
2022-12-25T11:36:11.047Z,100963.06
2022-12-25T11:39:35.551Z,100972.97
2022-12-25T11:42:40.559Z,100963.13
2022-12-25T11:45:55.441Z,100964.03
2022-12-25T11:49:01.836Z,100954.16
2022-12-25T11:52:06.723Z,100952.34
2022-12-25T11:55:20.583Z,100944.28
2022-12-25T11:58:33.761Z,100947.03
2022-12-25T12:01:48.313Z,100939.00
2022-12-25T12:05:03.229Z,100930.03
2022-12-25T12:08:06.585Z,100935.37
2022-12-25T12:11:16.663Z,100932.72
2022-12-25T12:14:51.221Z,100933.66
2022-12-25T12:17:54.283Z,100929.22
2022-12-25T12:21:07.011Z,100940.84
2022-12-25T12:24:17.125Z,100935.53
2022-12-25T12:27:19.584Z,100931.13
2022-12-25T12:30:32.409Z,100918.59
2022-12-25T12:33:41.992Z,100920.44
2022-12-25T12:36:44.855Z,100921.31
2022-12-25T12:39:52.688Z,100928.47
2022-12-25T12:42:55.740Z,100909.66
2022-12-25T12:46:06.156Z,100915.06
2022-12-25T12:49:20.641Z,100911.50
2022-12-25T12:52:25.792Z,100913.34
2022-12-25T12:55:37.683Z,100910.66
2022-12-25T12:58:51.111Z,100904.47
2022-12-25T13:02:13.662Z,100899.06
2022-12-25T13:05:25.584Z,100902.69
2022-12-25T13:08:53.640Z,100916.13
2022-12-25T13:11:56.537Z,100910.78
2022-12-25T13:15:00.590Z,100905.44
2022-12-25T13:18:07.132Z,100894.72
2022-12-25T13:21:17.368Z,100904.47
2022-12-25T13:24:25.791Z,100887.53
2022-12-25T13:27:30.987Z,100891.16
2022-12-25T13:30:33.585Z,100891.19
2022-12-25T13:33:37.193Z,100890.31
2022-12-25T13:36:40.307Z,100875.97
2022-12-25T13:39:52.830Z,100879.59
2022-12-25T13:42:59.204Z,100874.25
2022-12-25T13:46:02.155Z,100875.16
2022-12-25T13:49:13.732Z,100871.56
2022-12-25T13:52:37.908Z,100850.94
2022-12-25T13:55:42.026Z,100853.63
2022-12-25T13:58:46.956Z,100844.69
2022-12-25T14:01:50.548Z,100855.44
2022-12-25T14:04:53.545Z,100866.19
2022-12-25T14:07:58.618Z,100867.97
2022-12-25T14:11:05.792Z,100848.28
2022-12-25T14:14:18.314Z,100859.03
2022-12-25T14:17:22.290Z,100852.75
2022-12-25T14:20:27.747Z,100861.69
2022-12-25T14:23:50.719Z,100863.50
2022-12-25T14:27:03.965Z,100858.13
2022-12-25T14:30:12.555Z,100859.91
2022-12-25T14:33:16.837Z,100858.97
2022-12-25T14:36:19.749Z,100856.25
2022-12-25T14:39:40.593Z,100870.56
2022-12-25T14:42:43.486Z,100867.87
2022-12-25T14:45:54.924Z,100871.47
2022-12-25T14:49:00.812Z,100871.47
2022-12-25T14:52:49.926Z,100877.69
2022-12-25T14:55:54.051Z,100871.44
2022-12-25T14:58:58.415Z,100863.28
2022-12-25T15:02:01.406Z,100874.81
2022-12-25T15:05:04.297Z,100879.19
2022-12-25T15:08:11.139Z,100873.72
2022-12-25T15:11:13.756Z,100880.81
2022-12-25T15:14:17.040Z,100879.88
2022-12-25T15:17:27.013Z,100886.94
2022-12-25T15:20:34.098Z,100887.75
2022-12-25T15:23:36.721Z,100883.28
2022-12-25T15:26:40.074Z,100878.75
2022-12-25T15:30:09.309Z,100874.25
2022-12-25T15:33:06.939Z,100876.75
2022-12-25T15:36:10.466Z,100864.19
2022-12-25T15:39:13.457Z,100859.69
2022-12-25T15:42:19.523Z,100856.12
2022-12-25T15:45:27.777Z,100863.19
2022-12-25T15:48:30.410Z,100853.28
2022-12-25T15:51:33.609Z,100860.41
2022-12-25T15:54:36.211Z,100860.34
2022-12-25T15:57:42.455Z,100853.97
2022-12-25T16:00:45.011Z,100853.00
2022-12-25T16:03:48.347Z,100846.63
2022-12-25T16:06:51.588Z,100838.53
2022-12-25T16:09:54.464Z,100838.47
2022-12-25T16:12:57.039Z,100847.37
2022-12-25T16:16:00.457Z,100835.66
2022-12-25T16:19:03.359Z,100829.31
2022-12-25T16:22:23.836Z,100839.16
2022-12-25T16:25:26.415Z,100832.91
2022-12-25T16:28:29.180Z,100829.34
2022-12-25T16:31:31.899Z,100823.06
2022-12-25T16:34:34.839Z,100815.03
2022-12-25T16:37:37.384Z,100821.47
2022-12-25T16:40:40.399Z,100827.91
2022-12-25T16:43:43.534Z,100832.50
2022-12-25T16:46:46.428Z,100813.81
2022-12-25T16:49:49.268Z,100831.75
2022-12-25T16:52:52.123Z,100847.94
2022-12-25T16:56:05.592Z,100846.19
2022-12-25T16:59:08.477Z,100844.28
2022-12-25T17:02:16.126Z,100834.53
2022-12-25T17:05:19.265Z,100832.75
2022-12-25T17:08:22.015Z,100824.69
2022-12-25T17:11:29.587Z,100817.47
2022-12-25T17:14:32.905Z,100811.97
2022-12-25T17:17:35.960Z,100802.94
2022-12-25T17:20:38.664Z,100802.87
2022-12-25T17:23:41.887Z,100802.03
2022-12-25T17:26:44.804Z,100788.72
2022-12-25T17:29:48.125Z,100782.59
2022-12-25T17:32:51.422Z,100783.50
2022-12-25T17:35:57.365Z,100777.28
2022-12-25T17:39:05.817Z,100775.56
2022-12-25T17:42:08.995Z,100773.88
2022-12-25T17:45:11.769Z,100777.41
2022-12-25T17:48:14.773Z,100781.00
2022-12-25T17:51:21.519Z,100778.28
2022-12-25T17:54:24.460Z,100780.03
2022-12-25T17:57:27.048Z,100791.62
2022-12-25T18:00:29.868Z,100791.62
2022-12-25T18:03:32.850Z,100791.56
2022-12-25T18:06:36.406Z,100789.72
2022-12-25T18:09:39.317Z,100788.88
2022-12-25T18:12:43.915Z,100780.84
2022-12-25T18:15:46.756Z,100771.03
2022-12-25T18:18:52.178Z,100780.91
2022-12-25T18:21:55.703Z,100772.87
2022-12-25T18:24:58.240Z,100771.94
2022-12-25T18:28:02.863Z,100769.16
2022-12-25T18:31:11.176Z,100754.97
2022-12-25T18:34:14.035Z,100757.62
2022-12-25T18:37:16.627Z,100756.75
2022-12-25T18:40:19.610Z,100746.94
2022-12-25T18:43:22.198Z,100747.00
2022-12-25T18:46:45.088Z,100735.34
2022-12-25T18:49:48.605Z,100726.38
2022-12-25T18:52:52.036Z,100715.72
2022-12-25T18:55:56.545Z,100716.66
2022-12-25T18:59:00.755Z,100718.44
2022-12-25T19:02:03.351Z,100711.28
2022-12-25T19:05:06.466Z,100711.28
2022-12-25T19:08:09.271Z,100718.41
2022-12-25T19:11:12.150Z,100706.75
2022-12-25T19:14:14.902Z,100694.28
2022-12-25T19:17:18.113Z,100679.97
2022-12-25T19:20:20.810Z,100680.00
2022-12-25T19:23:23.743Z,100683.53
2022-12-25T19:26:26.341Z,100679.19
2022-12-25T19:29:29.442Z,100671.97
2022-12-25T19:32:32.306Z,100688.81
2022-12-25T19:35:35.435Z,100676.34
2022-12-25T19:38:38.433Z,100684.44
2022-12-25T19:41:41.543Z,100681.69
2022-12-25T19:44:44.406Z,100668.25
2022-12-25T19:47:47.429Z,100667.34
2022-12-25T19:50:50.194Z,100673.59
2022-12-25T19:53:56.214Z,100669.09
2022-12-25T19:56:58.704Z,100664.53
2022-12-25T20:00:01.601Z,100673.47
2022-12-25T20:03:04.983Z,100661.84
2022-12-25T20:06:08.200Z,100663.63
2022-12-25T20:09:14.822Z,100662.62
2022-12-25T20:12:17.771Z,100652.78
2022-12-25T20:15:20.373Z,100648.16
2022-12-25T20:18:23.206Z,100645.34
2022-12-25T20:21:27.443Z,100645.47
2022-12-25T20:24:30.536Z,100652.53
2022-12-25T20:27:33.108Z,100651.63
2022-12-25T20:30:39.756Z,100652.53
2022-12-25T20:33:42.653Z,100657.87
2022-12-25T20:36:45.637Z,100636.50
2022-12-25T20:39:48.318Z,100632.94
2022-12-25T20:42:51.219Z,100632.09
2022-12-25T20:45:53.774Z,100631.25
2022-12-25T20:48:56.765Z,100633.94
2022-12-25T20:52:04.761Z,100630.31
2022-12-25T20:55:08.739Z,100625.88
2022-12-25T20:58:11.376Z,100635.62
2022-12-25T21:01:16.383Z,100637.41
2022-12-25T21:04:18.919Z,100645.31
2022-12-25T21:07:21.785Z,100643.47
2022-12-25T21:10:25.363Z,100638.88
2022-12-25T21:13:33.624Z,100653.97
2022-12-25T21:16:36.271Z,100665.53
2022-12-25T21:19:39.473Z,100663.81
2022-12-25T21:22:42.128Z,100662.88
2022-12-25T21:25:45.520Z,100662.97
2022-12-25T21:28:53.138Z,100664.63
2022-12-25T21:32:14.860Z,100664.50
2022-12-25T21:35:17.422Z,100671.53
2022-12-25T21:38:20.231Z,100669.72
2022-12-25T21:41:23.318Z,100676.78
2022-12-25T21:44:26.223Z,100671.41
2022-12-25T21:48:01.831Z,100675.94
2022-12-25T21:51:10.351Z,100672.28
2022-12-25T21:54:13.769Z,100672.19
2022-12-25T21:57:16.704Z,100669.41
2022-12-25T22:00:28.063Z,100681.75
2022-12-25T22:03:30.971Z,100668.38
2022-12-25T22:06:52.255Z,100666.75
2022-12-25T22:09:55.287Z,100660.56
2022-12-25T22:13:18.520Z,100659.56
2022-12-25T22:16:39.852Z,100647.88
2022-12-25T22:19:45.421Z,100654.09
2022-12-25T22:22:48.732Z,100644.41
2022-12-25T22:25:51.309Z,100646.06
2022-12-25T22:28:54.201Z,100641.63
2022-12-25T22:31:56.785Z,100637.88
2022-12-25T22:35:00.669Z,100621.88
2022-12-25T22:38:03.207Z,100628.16
2022-12-25T22:41:06.479Z,100626.56
2022-12-25T22:44:17.744Z,100618.50
2022-12-25T22:47:20.815Z,100606.06
2022-12-25T22:50:23.414Z,100604.47
2022-12-25T22:53:26.251Z,100612.59
2022-12-25T22:56:28.786Z,100622.34
2022-12-25T22:59:33.029Z,100621.34
2022-12-25T23:02:35.761Z,100619.50
2022-12-25T23:05:39.071Z,100604.34
2022-12-25T23:08:43.311Z,100605.09
2022-12-25T23:11:46.624Z,100612.09
2022-12-25T23:14:49.122Z,100610.22
2022-12-25T23:18:10.289Z,100618.03
2022-12-25T23:21:32.402Z,100618.81
2022-12-25T23:24:53.761Z,100610.69
2022-12-25T23:27:56.313Z,100606.22
2022-12-25T23:30:59.211Z,100610.53
2022-12-25T23:34:02.606Z,100610.50
2022-12-25T23:37:05.839Z,100609.50
2022-12-25T23:40:09.259Z,100605.97
2022-12-25T23:43:12.183Z,100614.13
2022-12-25T23:46:15.295Z,100601.47
2022-12-25T23:49:18.492Z,100617.50
2022-12-25T23:52:21.027Z,100617.41
2022-12-25T23:55:24.653Z,100620.81
2022-12-25T23:58:28.113Z,100618.03
